Time;durP1;ratioP1;P1;durP2;ratioP2;P2;SDS_P1;SDS_P2;PMS_P1;PMS_P2;Temp;Humidity;BMP_temperature;BMP_pressure;BME280_temperature;BME280_humidity;BME280_pressure;Samples;Min_cycle;Max_cycle;Signal;HPM_P1;HPM_P2
2022/01/17 00:00:57;;;;;;;25.10;14.70;;;6.50;99.90;;;;;;5064999;28;20559;-83
2022/01/17 00:03:32;;;;;;;25.40;15.50;;;6.50;99.90;;;;;;5064265;28;20464;-83
2022/01/17 00:06:10;;;;;;;25.50;16.03;;;6.50;99.90;;;;;;5066366;28;20489;-83
2022/01/17 00:08:45;;;;;;;28.57;16.43;;;6.50;99.90;;;;;;5065015;28;20490;-84
2022/01/17 00:11:17;;;;;;;28.73;15.70;;;6.50;99.90;;;;;;5064421;28;20513;-83
2022/01/17 00:13:59;;;;;;;28.03;16.57;;;6.50;99.90;;;;;;5063636;28;20479;-83
2022/01/17 00:16:39;;;;;;;30.33;16.63;;;6.50;99.90;;;;;;5065349;28;21376;-83
2022/01/17 00:19:37;;;;;;;23.87;14.40;;;6.40;99.90;;;;;;5064870;28;20454;-84
2022/01/17 00:22:08;;;;;;;27.70;14.63;;;6.50;99.90;;;;;;5066018;28;20513;-83
2022/01/17 00:24:35;;;;;;;26.60;18.10;;;6.50;99.90;;;;;;5065282;28;21279;-83
2022/01/17 00:27:07;;;;;;;28.90;15.00;;;6.40;99.90;;;;;;5064223;28;20491;-83
2022/01/17 00:29:42;;;;;;;29.47;14.80;;;6.50;99.90;;;;;;5061627;28;20459;-84
2022/01/17 00:32:20;;;;;;;21.00;13.30;;;6.50;99.90;;;;;;5069256;28;20544;-83
2022/01/17 00:34:52;;;;;;;21.07;13.83;;;6.50;99.90;;;;;;5070225;28;20498;-83
2022/01/17 00:37:24;;;;;;;24.20;13.90;;;6.50;99.90;;;;;;5067068;28;20841;-83
2022/01/17 00:40:00;;;;;;;23.10;14.23;;;6.50;99.90;;;;;;5064255;28;20463;-85
2022/01/17 00:42:33;;;;;;;19.90;12.10;;;6.50;99.90;;;;;;5068514;28;20540;-83
2022/01/17 00:45:04;;;;;;;21.70;14.40;;;6.50;99.90;;;;;;5063064;28;20917;-82
2022/01/17 00:47:44;;;;;;;25.27;14.80;;;6.50;99.90;;;;;;5060314;28;20456;-83
2022/01/17 00:50:40;;;;;;;20.13;12.70;;;6.50;99.90;;;;;;5072410;28;20443;-82
2022/01/17 00:53:21;;;;;;;26.40;17.13;;;6.50;99.90;;;;;;5069995;28;20451;-82
2022/01/17 00:56:17;;;;;;;20.93;13.30;;;6.60;99.90;;;;;;5065432;28;20901;-83
2022/01/17 00:59:06;;;;;;;23.50;13.43;;;6.50;99.90;;;;;;5063325;28;20479;-83
2022/01/17 01:01:44;;;;;;;21.00;12.37;;;6.50;99.90;;;;;;5064798;28;20535;-83
2022/01/17 01:04:21;;;;;;;19.17;12.07;;;6.50;99.90;;;;;;5062794;28;20466;-83
2022/01/17 01:07:18;;;;;;;21.27;13.83;;;6.50;99.90;;;;;;5064572;28;22188;-83
2022/01/17 01:09:58;;;;;;;20.50;12.50;;;6.50;99.90;;;;;;5065333;28;20452;-83
2022/01/17 01:12:25;;;;;;;26.80;14.17;;;6.50;99.90;;;;;;5060580;28;20451;-83
2022/01/17 01:14:51;;;;;;;23.80;15.03;;;6.50;99.90;;;;;;5061339;28;20479;-83
2022/01/17 01:17:36;;;;;;;24.47;14.93;;;6.50;99.90;;;;;;5061090;28;20961;-84
2022/01/17 01:28:28;;;;;;;25.50;14.20;;;6.40;99.90;;;;;;5055401;28;20463;-83
2022/01/17 01:30:56;;;;;;;28.47;14.80;;;6.50;99.90;;;;;;5057356;28;20678;-82
2022/01/17 01:33:28;;;;;;;25.00;15.07;;;6.40;99.90;;;;;;5062153;28;20991;-82
2022/01/17 01:36:01;;;;;;;25.87;14.47;;;6.50;99.90;;;;;;5065570;28;20918;-82
2022/01/17 01:38:28;;;;;;;25.63;15.00;;;6.50;99.90;;;;;;5066188;28;20458;-82
2022/01/17 01:40:55;;;;;;;27.00;15.20;;;6.50;99.90;;;;;;5064613;28;20464;-82
2022/01/17 01:43:22;;;;;;;22.60;14.60;;;6.50;99.90;;;;;;5061932;28;20469;-82
2022/01/17 01:45:50;;;;;;;21.97;14.80;;;6.50;99.90;;;;;;5067233;28;20884;-82
2022/01/17 01:48:20;;;;;;;21.70;13.13;;;6.50;99.90;;;;;;5072706;28;20522;-80
2022/01/17 01:50:47;;;;;;;27.57;14.37;;;6.50;99.90;;;;;;5075174;28;20456;-81
2022/01/17 01:53:13;;;;;;;31.20;15.00;;;6.50;99.90;;;;;;5076369;28;21836;-82
2022/01/17 01:55:40;;;;;;;22.23;14.37;;;6.50;99.90;;;;;;5080043;28;20478;-82
2022/01/17 01:58:09;;;;;;;28.67;16.70;;;6.50;99.90;;;;;;5079850;28;20444;-83
2022/01/17 02:00:36;;;;;;;20.27;14.80;;;6.50;99.90;;;;;;5069838;28;21064;-83
2022/01/17 02:03:04;;;;;;;27.47;16.27;;;6.50;99.90;;;;;;5072273;28;20451;-82
2022/01/17 02:05:31;;;;;;;26.67;16.33;;;6.60;99.90;;;;;;5071922;28;20467;-83
2022/01/17 02:07:58;;;;;;;26.97;16.20;;;6.50;99.90;;;;;;5075188;28;20452;-82
2022/01/17 02:10:25;;;;;;;25.60;16.17;;;6.60;99.90;;;;;;5066220;28;20474;-83
2022/01/17 02:12:52;;;;;;;27.83;15.13;;;6.50;99.90;;;;;;5062073;28;20460;-83
2022/01/17 02:15:18;;;;;;;28.17;17.20;;;6.60;99.90;;;;;;5063350;28;20497;-82
2022/01/17 02:17:53;;;;;;;28.43;15.07;;;6.60;99.90;;;;;;5063826;28;20452;-82
2022/01/17 02:20:40;;;;;;;27.40;15.90;;;6.60;99.90;;;;;;5066664;28;20455;-83
2022/01/17 02:23:08;;;;;;;24.53;16.10;;;6.60;99.90;;;;;;5068500;28;20464;-83
2022/01/17 02:25:35;;;;;;;30.93;17.30;;;6.60;99.90;;;;;;5064923;28;20525;-83
2022/01/17 02:28:02;;;;;;;25.70;16.40;;;6.60;99.90;;;;;;5065426;28;20515;-84
2022/01/17 02:30:32;;;;;;;27.03;16.10;;;6.60;99.90;;;;;;5064695;28;20467;-83
2022/01/17 02:33:00;;;;;;;29.60;16.53;;;6.60;99.90;;;;;;5068937;28;20505;-81
2022/01/17 02:35:27;;;;;;;25.00;15.60;;;6.60;99.90;;;;;;5067982;28;20492;-82
2022/01/17 02:37:54;;;;;;;26.90;15.37;;;6.60;99.90;;;;;;5065060;28;20456;-82
2022/01/17 02:40:22;;;;;;;25.70;16.10;;;6.60;99.90;;;;;;5064147;28;20455;-82
2022/01/17 02:42:51;;;;;;;27.10;16.97;;;6.70;99.90;;;;;;5065288;28;20458;-82
2022/01/17 02:46:24;;;;;;;25.97;16.50;;;6.70;99.90;;;;;;5067223;28;21047;-83
2022/01/17 02:48:28;;;;;;;31.87;18.57;;;6.60;99.90;;;;;;5067564;28;20512;-83
2022/01/17 02:50:56;;;;;;;26.43;16.37;;;6.70;99.90;;;;;;5069834;28;20489;-84
2022/01/17 02:53:25;;;;;;;28.47;16.30;;;6.60;99.90;;;;;;5081735;28;20452;-83
2022/01/17 02:55:55;;;;;;;27.77;16.10;;;6.60;99.90;;;;;;5077191;28;20579;-82
2022/01/17 02:58:23;;;;;;;29.87;16.67;;;6.70;99.90;;;;;;5069002;28;20448;-81
2022/01/17 03:00:52;;;;;;;30.90;17.50;;;6.70;99.90;;;;;;5079745;28;20454;-82
2022/01/17 03:03:23;;;;;;;26.57;17.07;;;6.70;99.90;;;;;;5086811;28;20448;-82
2022/01/17 03:05:50;;;;;;;28.63;17.00;;;6.70;99.90;;;;;;5073630;28;20566;-83
2022/01/17 03:08:20;;;;;;;29.13;18.57;;;6.70;99.90;;;;;;5065056;28;20464;-82
2022/01/17 03:10:47;;;;;;;31.03;18.00;;;6.70;99.90;;;;;;5065596;28;20914;-83
2022/01/17 03:13:30;;;;;;;32.40;18.70;;;6.70;99.90;;;;;;5065063;28;20464;-83
2022/01/17 03:15:59;;;;;;;30.73;17.50;;;6.70;99.90;;;;;;5065456;28;21220;-82
2022/01/17 03:18:31;;;;;;;28.90;17.50;;;6.70;99.90;;;;;;5077689;28;20440;-82
2022/01/17 03:21:00;;;;;;;28.47;18.10;;;6.70;99.90;;;;;;5063609;28;20459;-82
2022/01/17 03:23:27;;;;;;;33.30;18.00;;;6.70;99.90;;;;;;5064923;28;20449;-83
2022/01/17 03:25:54;;;;;;;33.37;17.17;;;6.70;99.90;;;;;;5063031;28;20511;-83
2022/01/17 03:28:21;;;;;;;29.07;17.80;;;6.70;99.90;;;;;;5062941;28;20958;-82
2022/01/17 03:30:48;;;;;;;28.80;17.33;;;6.70;99.90;;;;;;5063143;28;20467;-83
2022/01/17 03:33:17;;;;;;;29.70;18.83;;;6.70;99.90;;;;;;5062728;28;20467;-82
2022/01/17 03:35:44;;;;;;;35.00;19.70;;;6.80;99.90;;;;;;5060964;28;20479;-83
2022/01/17 03:38:13;;;;;;;29.00;18.20;;;6.80;99.90;;;;;;5065462;28;20468;-83
2022/01/17 03:40:41;;;;;;;30.20;16.93;;;6.80;99.90;;;;;;5072182;28;20446;-83
2022/01/17 03:43:08;;;;;;;28.57;17.87;;;6.80;99.90;;;;;;5066859;28;20463;-83
2022/01/17 03:45:35;;;;;;;32.63;17.70;;;6.80;99.90;;;;;;5064877;28;20479;-82
2022/01/17 03:48:02;;;;;;;29.60;17.03;;;6.80;99.90;;;;;;5059627;28;20471;-82
2022/01/17 03:50:29;;;;;;;27.57;18.40;;;6.80;99.90;;;;;;5062064;28;20452;-82
2022/01/17 03:52:56;;;;;;;31.83;18.23;;;6.80;99.90;;;;;;5060169;28;20560;-83
2022/01/17 03:55:24;;;;;;;29.87;18.00;;;6.80;99.90;;;;;;5062889;28;20479;-82
2022/01/17 03:57:51;;;;;;;31.33;19.23;;;6.80;99.90;;;;;;5060878;28;20458;-82
2022/01/17 04:00:27;;;;;;;32.23;19.47;;;6.80;99.90;;;;;;5060426;28;20495;-82
2022/01/17 04:02:55;;;;;;;28.67;18.40;;;6.80;99.90;;;;;;5061720;28;20459;-83
2022/01/17 04:05:22;;;;;;;28.47;17.93;;;6.80;99.90;;;;;;5061759;28;20494;-82
2022/01/17 04:07:49;;;;;;;28.43;18.83;;;6.80;99.90;;;;;;5061436;28;20543;-82
2022/01/17 04:10:16;;;;;;;34.97;20.77;;;6.80;99.90;;;;;;5061543;28;20462;-82
2022/01/17 04:12:43;;;;;;;36.50;20.67;;;6.80;99.90;;;;;;5064299;28;20463;-82
2022/01/17 04:15:11;;;;;;;31.00;19.83;;;6.80;99.90;;;;;;5063688;28;20487;-82
2022/01/17 04:17:41;;;;;;;33.30;19.60;;;6.80;99.90;;;;;;5061681;28;20470;-82
2022/01/17 04:20:13;;;;;;;32.90;19.43;;;6.90;99.90;;;;;;5060130;28;20486;-83
2022/01/17 04:22:49;;;;;;;33.43;20.27;;;6.90;99.90;;;;;;5060030;28;20460;-82
2022/01/17 04:25:16;;;;;;;32.10;19.10;;;6.90;99.90;;;;;;5059031;28;20485;-83
2022/01/17 04:27:42;;;;;;;31.47;19.53;;;6.80;99.90;;;;;;5062832;28;20521;-83
2022/01/17 04:30:10;;;;;;;31.20;18.40;;;6.90;99.90;;;;;;5060674;28;20440;-83
2022/01/17 04:32:36;;;;;;;28.47;17.93;;;6.90;99.90;;;;;;5062790;28;20473;-82
2022/01/17 04:35:04;;;;;;;27.80;18.33;;;6.90;99.90;;;;;;5065282;28;20495;-83
2022/01/17 04:37:30;;;;;;;27.97;17.40;;;6.90;99.90;;;;;;5065555;28;20458;-83
2022/01/17 04:39:57;;;;;;;29.83;18.27;;;6.90;99.90;;;;;;5069091;28;20448;-83
2022/01/17 04:42:28;;;;;;;33.43;18.70;;;6.90;99.90;;;;;;5078236;28;20444;-82
2022/01/17 04:45:07;;;;;;;27.57;19.33;;;6.90;99.90;;;;;;5072374;28;20483;-83
2022/01/17 04:47:36;;;;;;;30.23;17.53;;;6.90;99.90;;;;;;5062661;28;20452;-82
2022/01/17 04:50:09;;;;;;;31.60;19.60;;;6.90;99.90;;;;;;5060647;28;20475;-83
2022/01/17 04:52:36;;;;;;;28.47;16.83;;;6.90;99.90;;;;;;5063507;28;21062;-83
2022/01/17 04:55:05;;;;;;;27.33;18.47;;;6.80;99.90;;;;;;5064494;28;20487;-82
2022/01/17 04:57:32;;;;;;;25.40;16.33;;;6.80;99.90;;;;;;5062574;28;20482;-82
2022/01/17 04:59:58;;;;;;;28.90;17.53;;;6.90;99.90;;;;;;5063934;28;20464;-82
2022/01/17 05:02:25;;;;;;;25.40;17.77;;;6.90;99.90;;;;;;5060686;28;20536;-82
2022/01/17 05:04:52;;;;;;;27.40;17.97;;;6.90;99.90;;;;;;5061073;28;20478;-82
2022/01/17 05:07:18;;;;;;;26.43;17.50;;;6.90;99.90;;;;;;5063059;28;20467;-81
2022/01/17 05:09:46;;;;;;;23.43;16.00;;;6.90;99.90;;;;;;5062710;28;20460;-82
2022/01/17 05:12:14;;;;;;;26.60;17.07;;;6.90;99.90;;;;;;5061743;28;20497;-82
2022/01/17 05:14:45;;;;;;;26.43;16.60;;;6.90;99.90;;;;;;5061915;28;20487;-82
2022/01/17 05:20:03;;;;;;;31.40;15.60;;;6.90;99.90;;;;;;5069951;28;20455;-82
2022/01/17 05:22:32;;;;;;;27.27;16.70;;;6.90;99.90;;;;;;5063628;28;20437;-82
2022/01/17 05:25:01;;;;;;;34.93;16.47;;;6.90;99.90;;;;;;5060071;28;20483;-82
2022/01/17 05:27:28;;;;;;;28.37;17.30;;;6.90;99.90;;;;;;5058450;28;20483;-82
2022/01/17 05:29:54;;;;;;;22.90;15.53;;;6.90;99.90;;;;;;5062501;28;21002;-82
2022/01/17 05:32:21;;;;;;;29.07;17.17;;;7.00;99.90;;;;;;5062890;28;20480;-82
2022/01/17 05:34:49;;;;;;;24.37;15.40;;;7.00;99.90;;;;;;5063450;28;20479;-83
2022/01/17 05:37:17;;;;;;;26.73;16.27;;;7.00;99.90;;;;;;5064397;28;20707;-82
2022/01/17 05:39:44;;;;;;;29.20;16.53;;;7.00;99.90;;;;;;5065013;28;20498;-82
2022/01/17 05:42:17;;;;;;;24.77;15.63;;;7.00;99.90;;;;;;5063006;28;20552;-82
2022/01/17 05:44:46;;;;;;;25.20;16.00;;;7.00;99.90;;;;;;5064613;28;20560;-82
2022/01/17 05:47:13;;;;;;;26.00;15.20;;;7.00;99.90;;;;;;5065770;28;20460;-82
2022/01/17 05:49:41;;;;;;;29.70;18.97;;;7.00;99.90;;;;;;5064777;28;20444;-82
2022/01/17 05:52:09;;;;;;;26.27;16.47;;;7.00;99.90;;;;;;5062064;28;20466;-83
2022/01/17 05:54:37;;;;;;;25.13;15.47;;;7.00;99.90;;;;;;5064964;28;21031;-83
2022/01/17 05:57:04;;;;;;;27.63;17.20;;;7.00;99.90;;;;;;5063534;28;20484;-83
2022/01/17 05:59:31;;;;;;;27.60;15.90;;;6.90;99.90;;;;;;5064633;28;20474;-82
2022/01/17 06:01:58;;;;;;;27.27;15.27;;;6.90;99.90;;;;;;5064977;28;20448;-84
2022/01/17 06:04:35;;;;;;;26.73;16.73;;;6.90;99.90;;;;;;5066329;28;20448;-82
2022/01/17 06:07:03;;;;;;;27.83;15.80;;;6.90;99.90;;;;;;5076142;28;20454;-83
2022/01/17 06:09:30;;;;;;;29.53;16.60;;;6.90;99.90;;;;;;5078009;28;20455;-83
2022/01/17 06:11:57;;;;;;;26.83;17.10;;;6.90;99.90;;;;;;5083041;28;20443;-82
2022/01/17 06:14:24;;;;;;;23.37;16.20;;;6.90;99.90;;;;;;5085993;28;20456;-83
2022/01/17 06:16:52;;;;;;;25.73;15.50;;;6.90;99.90;;;;;;5087360;28;20561;-83
2022/01/17 06:19:20;;;;;;;29.97;16.90;;;6.90;99.90;;;;;;5091224;28;20764;-84
2022/01/17 06:21:47;;;;;;;25.13;15.30;;;6.90;99.90;;;;;;5081996;28;20458;-82
2022/01/17 06:24:16;;;;;;;23.70;15.63;;;6.90;99.90;;;;;;5076692;28;20949;-83
2022/01/17 06:26:43;;;;;;;24.30;15.63;;;6.90;99.90;;;;;;5078559;28;20459;-82
2022/01/17 06:29:12;;;;;;;20.80;13.70;;;7.00;99.90;;;;;;5074736;28;20445;-83
2022/01/17 06:31:39;;;;;;;23.73;15.10;;;7.00;99.90;;;;;;5079041;28;20451;-83
2022/01/17 06:34:06;;;;;;;27.77;17.17;;;7.00;99.90;;;;;;5079333;28;20531;-83
2022/01/17 06:36:33;;;;;;;29.13;14.90;;;7.00;99.90;;;;;;5080968;28;20482;-84
2022/01/17 06:39:02;;;;;;;24.20;15.40;;;7.00;99.90;;;;;;5090697;28;20517;-82
2022/01/17 06:41:30;;;;;;;22.80;14.60;;;7.00;99.90;;;;;;5097905;28;20452;-84
2022/01/17 06:43:57;;;;;;;28.70;15.10;;;7.00;99.90;;;;;;5091343;28;20460;-84
2022/01/17 06:46:24;;;;;;;24.80;14.47;;;7.00;99.90;;;;;;5075351;28;20471;-83
2022/01/17 06:48:52;;;;;;;25.23;14.57;;;7.00;99.90;;;;;;5094535;28;20445;-83
2022/01/17 06:51:19;;;;;;;27.10;15.60;;;7.10;99.90;;;;;;5079291;28;20470;-83
2022/01/17 06:53:48;;;;;;;25.70;15.37;;;7.00;99.90;;;;;;5066262;28;20441;-83
2022/01/17 06:56:15;;;;;;;22.10;14.00;;;7.00;99.90;;;;;;5070077;28;20495;-84
2022/01/17 06:58:44;;;;;;;25.00;14.90;;;7.10;99.90;;;;;;5080680;28;20536;-83
2022/01/17 07:01:12;;;;;;;20.00;13.57;;;7.00;99.90;;;;;;5080913;28;20449;-84
2022/01/17 07:03:40;;;;;;;27.87;13.83;;;7.10;99.90;;;;;;5073425;28;20436;-84
2022/01/17 07:06:07;;;;;;;24.63;15.47;;;7.00;99.90;;;;;;5083254;28;20475;-83
2022/01/17 07:08:34;;;;;;;23.97;15.80;;;7.00;99.90;;;;;;5082329;28;20447;-83
2022/01/17 07:11:00;;;;;;;22.00;13.20;;;7.00;99.90;;;;;;5086142;28;20448;-84
2022/01/17 07:13:30;;;;;;;24.47;15.27;;;7.00;99.90;;;;;;5082412;28;20439;-83
2022/01/17 07:15:57;;;;;;;24.20;14.87;;;7.10;99.90;;;;;;5078511;28;20491;-83
2022/01/17 07:18:24;;;;;;;25.23;16.40;;;7.10;99.90;;;;;;5069751;28;20471;-84
2022/01/17 07:20:51;;;;;;;25.17;15.20;;;7.10;99.90;;;;;;5078125;28;20465;-83
2022/01/17 07:23:18;;;;;;;29.80;15.40;;;7.10;99.90;;;;;;5063045;28;20460;-83
2022/01/17 07:25:44;;;;;;;22.13;14.00;;;7.10;99.90;;;;;;5077621;28;20479;-83
2022/01/17 07:28:13;;;;;;;22.97;15.60;;;7.10;99.90;;;;;;5077027;28;21097;-83
2022/01/17 07:30:40;;;;;;;24.20;15.73;;;7.10;99.90;;;;;;5090539;28;20452;-83
2022/01/17 07:33:08;;;;;;;24.93;16.17;;;7.10;99.90;;;;;;5087924;28;20447;-84
2022/01/17 07:35:36;;;;;;;21.93;14.70;;;7.10;99.90;;;;;;5079014;28;20533;-84
2022/01/17 07:38:04;;;;;;;20.00;13.43;;;7.10;99.90;;;;;;5069457;28;20516;-82
2022/01/17 07:40:33;;;;;;;25.83;14.50;;;7.10;99.90;;;;;;5073728;28;20476;-83
2022/01/17 07:43:09;;;;;;;25.77;15.10;;;7.10;99.90;;;;;;5070093;28;20447;-82
2022/01/17 07:46:02;;;;;;;21.93;13.93;;;7.10;99.90;;;;;;5081277;28;20487;-83
2022/01/17 07:51:18;;;;;;;20.47;14.10;;;7.10;99.90;;;;;;5077475;28;20602;-83
2022/01/17 07:53:52;;;;;;;27.73;15.17;;;7.10;99.90;;;;;;5080107;28;20447;-82
2022/01/17 07:56:36;;;;;;;26.57;15.77;;;7.10;99.90;;;;;;5080105;28;20479;-83
2022/01/17 07:59:25;;;;;;;21.70;13.80;;;7.10;99.90;;;;;;5070817;28;20551;-83
2022/01/17 08:02:14;;;;;;;23.10;14.20;;;7.20;99.90;;;;;;5078970;28;20455;-83
2022/01/17 08:04:50;;;;;;;22.57;14.43;;;7.20;99.90;;;;;;5065718;28;20589;-82
2022/01/17 08:07:28;;;;;;;26.37;14.93;;;7.20;99.90;;;;;;5065601;28;20457;-82
2022/01/17 08:10:01;;;;;;;25.97;15.17;;;7.20;99.90;;;;;;5069720;28;20493;-83
2022/01/17 08:12:48;;;;;;;21.30;14.40;;;7.20;99.90;;;;;;5069776;28;20515;-83
2022/01/17 08:15:24;;;;;;;24.40;14.63;;;7.30;99.90;;;;;;5075866;28;20467;-83
2022/01/17 08:17:59;;;;;;;26.90;15.47;;;7.30;99.90;;;;;;5080734;28;20474;-83
2022/01/17 08:20:46;;;;;;;24.30;13.27;;;7.30;99.90;;;;;;5079742;28;20493;-82
2022/01/17 08:23:18;;;;;;;21.73;13.17;;;7.30;99.90;;;;;;5073459;28;20459;-82
2022/01/17 08:25:51;;;;;;;25.73;14.60;;;7.30;99.90;;;;;;5064924;28;20491;-82
2022/01/17 08:28:28;;;;;;;27.40;16.17;;;7.40;99.90;;;;;;5067119;28;20582;-82
2022/01/17 08:31:00;;;;;;;26.30;15.97;;;7.30;99.90;;;;;;5068100;28;20462;-82
2022/01/17 08:33:46;;;;;;;24.17;13.87;;;7.30;99.90;;;;;;5066899;28;20551;-82
2022/01/17 08:36:21;;;;;;;22.27;15.20;;;7.40;99.90;;;;;;5065282;28;20519;-84
2022/01/17 08:38:59;;;;;;;24.10;14.63;;;7.40;99.90;;;;;;5068099;28;20829;-82
2022/01/17 08:41:42;;;;;;;21.10;14.00;;;7.40;99.90;;;;;;5066274;28;20461;-82
2022/01/17 08:44:28;;;;;;;22.13;14.60;;;7.40;99.90;;;;;;5065926;28;20456;-82
2022/01/17 08:47:05;;;;;;;20.80;13.97;;;7.40;99.90;;;;;;5067285;28;20489;-84
2022/01/17 08:49:42;;;;;;;20.97;12.50;;;7.40;99.90;;;;;;5066516;28;20948;-83
2022/01/17 08:52:23;;;;;;;26.23;15.10;;;7.50;99.90;;;;;;5068935;28;20602;-83
2022/01/17 08:55:08;;;;;;;23.00;14.23;;;7.50;99.90;;;;;;5067065;28;20472;-83
2022/01/17 08:57:44;;;;;;;21.47;12.23;;;7.50;99.90;;;;;;5068469;28;20487;-83
2022/01/17 09:00:26;;;;;;;22.90;13.43;;;7.50;99.90;;;;;;5065721;28;20474;-83
2022/01/17 09:03:25;;;;;;;23.40;13.63;;;7.50;99.90;;;;;;5067739;28;20456;-83
2022/01/17 09:06:16;;;;;;;21.93;13.50;;;7.50;99.90;;;;;;5069906;28;20460;-82
2022/01/17 09:08:45;;;;;;;24.03;14.03;;;7.50;99.90;;;;;;5062203;28;20457;-83
2022/01/17 09:11:26;;;;;;;25.73;15.00;;;7.50;99.90;;;;;;5068550;28;20443;-82
2022/01/17 09:14:00;;;;;;;25.07;15.47;;;7.50;99.90;;;;;;5065491;28;20468;-83
2022/01/17 09:16:32;;;;;;;28.17;15.40;;;7.40;99.90;;;;;;5065905;28;20486;-82
2022/01/17 09:19:07;;;;;;;31.00;17.10;;;7.40;99.90;;;;;;5063940;28;20488;-83
2022/01/17 09:21:55;;;;;;;25.37;16.20;;;7.40;99.90;;;;;;5066104;28;20451;-83
2022/01/17 09:24:31;;;;;;;28.10;16.10;;;7.40;99.90;;;;;;5067315;28;20459;-83
2022/01/17 09:27:10;;;;;;;27.83;16.20;;;7.40;99.90;;;;;;5065254;28;20453;-84
2022/01/17 09:29:48;;;;;;;30.13;17.07;;;7.40;99.90;;;;;;5065084;28;20472;-82
2022/01/17 09:32:46;;;;;;;23.47;15.10;;;7.40;99.90;;;;;;5068137;28;20917;-82
2022/01/17 09:35:18;;;;;;;26.53;14.87;;;7.40;99.90;;;;;;5078939;28;20869;-82
2022/01/17 09:37:59;;;;;;;25.60;15.97;;;7.40;99.90;;;;;;5078524;28;20551;-82
2022/01/17 09:40:33;;;;;;;25.60;15.90;;;7.40;99.90;;;;;;5070837;28;20939;-83
2022/01/17 09:44:01;;;;;;;32.10;18.90;;;7.40;99.90;;;;;;5069191;28;20470;-81
2022/01/17 09:46:39;;;;;;;28.30;16.73;;;7.50;99.90;;;;;;5061161;28;20530;-83
2022/01/17 09:49:56;;;;;;;28.90;16.43;;;7.50;99.90;;;;;;5079837;28;20451;-82
2022/01/17 09:52:34;;;;;;;29.50;17.10;;;7.70;99.90;;;;;;5045147;28;20483;-82
2022/01/17 09:55:03;;;;;;;30.40;17.00;;;7.90;99.90;;;;;;5070874;28;20595;-82
2022/01/17 09:57:31;;;;;;;26.53;17.50;;;8.00;99.90;;;;;;5074553;28;20487;-82
2022/01/17 09:59:58;;;;;;;33.13;16.80;;;8.00;99.90;;;;;;5075470;28;20521;-82
2022/01/17 10:02:25;;;;;;;27.00;15.77;;;8.00;99.90;;;;;;5070081;28;20444;-82
2022/01/17 10:04:53;;;;;;;23.87;16.33;;;8.00;99.90;;;;;;5073108;28;20487;-82
2022/01/17 10:07:20;;;;;;;24.00;15.57;;;8.00;99.90;;;;;;5073265;28;20555;-82
2022/01/17 10:09:59;;;;;;;34.80;19.20;;;7.90;99.90;;;;;;5072937;28;21455;-83
2022/01/17 10:12:26;;;;;;;28.77;16.83;;;7.90;99.90;;;;;;5075220;28;20519;-83
2022/01/17 10:15:05;;;;;;;26.83;16.73;;;7.90;99.90;;;;;;5069184;28;20489;-83
2022/01/17 10:17:50;;;;;;;24.40;15.10;;;7.90;99.90;;;;;;5070008;28;20486;-82
2022/01/17 10:20:18;;;;;;;27.87;18.07;;;7.90;99.90;;;;;;5071224;28;20466;-82
2022/01/17 10:22:56;;;;;;;25.03;16.53;;;7.90;99.90;;;;;;5075020;28;20452;-83
2022/01/17 10:25:50;;;;;;;30.60;17.07;;;7.90;99.90;;;;;;5077359;28;20458;-82
2022/01/17 10:28:47;;;;;;;28.90;17.27;;;7.90;99.90;;;;;;5089264;28;20447;-82
2022/01/17 10:36:53;;;;;;;26.37;14.77;;;8.00;99.90;;;;;;5092513;28;20485;-82
2022/01/17 10:39:20;;;;;;;25.40;14.57;;;8.00;99.90;;;;;;5091041;28;20511;-82
2022/01/17 10:41:48;;;;;;;24.00;16.77;;;8.00;99.90;;;;;;5074205;28;20469;-82
2022/01/17 10:44:35;;;;;;;25.83;16.53;;;8.00;99.90;;;;;;5070840;28;20460;-82
2022/01/17 10:47:26;;;;;;;27.57;17.80;;;8.00;99.90;;;;;;5071437;28;21019;-83
2022/01/17 10:50:04;;;;;;;25.07;17.13;;;8.10;99.90;;;;;;5071345;28;20546;-83
2022/01/17 10:52:35;;;;;;;25.53;16.53;;;8.30;99.90;;;;;;5067648;28;20541;-82
2022/01/17 10:55:13;;;;;;;25.00;15.73;;;8.30;99.90;;;;;;5069458;28;20503;-83
2022/01/17 10:57:43;;;;;;;24.50;16.40;;;8.30;99.90;;;;;;5069291;28;21205;-80
2022/01/17 11:00:13;;;;;;;23.53;16.77;;;8.30;99.90;;;;;;5067137;28;20524;-83
2022/01/17 11:02:47;;;;;;;24.33;16.30;;;8.40;99.90;;;;;;5068353;28;20436;-81
2022/01/17 11:05:17;;;;;;;22.50;16.67;;;8.40;99.90;;;;;;5068542;28;20499;-82
2022/01/17 11:07:46;;;;;;;27.30;17.20;;;8.30;99.90;;;;;;5073253;28;20449;-82
2022/01/17 11:10:24;;;;;;;23.90;15.53;;;8.30;99.90;;;;;;5076408;28;20457;-83
2022/01/17 11:12:54;;;;;;;26.87;17.07;;;8.30;99.90;;;;;;5082106;28;20464;-83
2022/01/17 11:15:23;;;;;;;22.77;16.53;;;8.30;99.90;;;;;;5069288;28;20487;-83
2022/01/17 11:17:57;;;;;;;26.57;16.93;;;8.30;99.90;;;;;;5067782;28;20851;-82
2022/01/17 11:20:27;;;;;;;23.83;18.40;;;8.30;99.90;;;;;;5063512;28;20825;-81
2022/01/17 11:22:56;;;;;;;21.73;15.27;;;8.30;99.90;;;;;;5067451;28;20816;-82
2022/01/17 11:25:28;;;;;;;22.43;15.10;;;8.30;99.90;;;;;;5067218;28;20499;-81
2022/01/17 11:27:56;;;;;;;26.50;15.10;;;8.20;99.90;;;;;;5078129;28;20471;-81
2022/01/17 11:30:22;;;;;;;21.83;16.00;;;8.20;99.90;;;;;;5065860;28;20527;-82
2022/01/17 11:32:51;;;;;;;25.70;16.27;;;8.10;99.90;;;;;;5066413;28;20874;-81
2022/01/17 11:35:20;;;;;;;23.93;16.07;;;8.10;99.90;;;;;;5063633;28;20510;-81
2022/01/17 11:37:52;;;;;;;22.90;16.73;;;8.20;99.90;;;;;;5063486;28;20651;-81
2022/01/17 11:40:34;;;;;;;19.80;15.53;;;8.20;99.90;;;;;;5079127;28;20432;-81
2022/01/17 11:43:22;;;;;;;20.60;15.43;;;8.20;99.90;;;;;;5067558;28;20452;-82
2022/01/17 11:45:52;;;;;;;22.30;15.10;;;8.10;99.90;;;;;;5072052;28;20472;-81
2022/01/17 11:48:29;;;;;;;22.53;15.93;;;8.10;99.90;;;;;;5064144;28;20518;-81
2022/01/17 11:51:14;;;;;;;19.43;14.30;;;8.20;99.90;;;;;;5065065;28;20462;-82
2022/01/17 11:53:47;;;;;;;25.10;14.73;;;8.10;99.90;;;;;;5066635;28;20452;-83
2022/01/17 11:56:33;;;;;;;25.10;17.30;;;8.10;99.90;;;;;;5068576;28;20553;-82
2022/01/17 11:59:00;;;;;;;22.30;15.60;;;8.10;99.90;;;;;;5073832;28;20452;-83
2022/01/17 12:01:28;;;;;;;25.80;15.47;;;8.10;99.90;;;;;;5073225;28;20445;-83
2022/01/17 12:03:56;;;;;;;20.00;14.70;;;8.10;99.90;;;;;;5070873;28;20464;-81
2022/01/17 12:06:35;;;;;;;22.03;14.30;;;8.10;99.90;;;;;;5074434;28;20471;-82
2022/01/17 12:09:25;;;;;;;24.57;16.17;;;8.10;99.90;;;;;;5067149;28;20459;-82
2022/01/17 12:11:55;;;;;;;18.30;13.73;;;8.20;99.90;;;;;;5066342;28;20460;-82
2022/01/17 12:14:34;;;;;;;22.50;14.57;;;8.10;99.90;;;;;;5067933;28;20491;-82
2022/01/17 12:17:20;;;;;;;19.23;15.00;;;8.10;99.90;;;;;;5065135;28;20515;-82
2022/01/17 12:20:09;;;;;;;22.00;15.00;;;8.10;99.90;;;;;;5063411;28;20488;-82
2022/01/17 12:22:39;;;;;;;19.80;12.90;;;8.10;99.90;;;;;;5066989;28;20521;-82
2022/01/17 12:25:24;;;;;;;26.50;15.97;;;8.10;99.90;;;;;;5065425;28;20463;-82
2022/01/17 12:28:16;;;;;;;19.93;15.73;;;8.10;99.90;;;;;;5065186;28;20456;-82
2022/01/17 12:30:57;;;;;;;21.00;14.97;;;8.10;99.90;;;;;;5065841;28;20452;-82
2022/01/17 12:33:40;;;;;;;23.53;13.60;;;8.10;99.90;;;;;;5064010;28;20464;-83
2022/01/17 12:36:28;;;;;;;22.57;15.57;;;8.10;99.90;;;;;;5063204;28;20545;-82
2022/01/17 12:39:20;;;;;;;22.67;14.73;;;8.10;99.90;;;;;;5065232;28;20444;-82
2022/01/17 12:41:55;;;;;;;19.90;14.30;;;8.10;99.90;;;;;;5067773;28;20552;-82
2022/01/17 12:44:31;;;;;;;19.60;13.77;;;8.10;99.90;;;;;;5066456;28;20905;-81
2022/01/17 12:47:00;;;;;;;22.80;13.87;;;8.10;99.90;;;;;;5067225;28;20452;-81
2022/01/17 12:49:28;;;;;;;24.10;14.53;;;8.10;99.90;;;;;;5065814;28;20457;-81
2022/01/17 12:51:57;;;;;;;21.77;14.10;;;8.10;99.90;;;;;;5066761;28;20470;-82
2022/01/17 12:54:33;;;;;;;24.20;14.60;;;8.10;99.90;;;;;;5065874;28;20542;-81
2022/01/17 12:57:01;;;;;;;19.97;14.07;;;8.10;99.90;;;;;;5083194;28;20548;-82
2022/01/17 12:59:28;;;;;;;20.73;15.10;;;8.10;99.90;;;;;;5065222;28;20539;-82
2022/01/17 13:01:58;;;;;;;23.10;14.53;;;8.10;99.90;;;;;;5066600;28;20448;-82
2022/01/17 13:04:26;;;;;;;20.87;14.50;;;8.10;99.90;;;;;;5066765;28;20460;-82
2022/01/17 13:06:56;;;;;;;18.70;14.93;;;8.10;99.90;;;;;;5052439;28;20456;-82
2022/01/17 13:09:25;;;;;;;21.83;14.70;;;8.10;99.90;;;;;;5065927;28;21233;-81
2022/01/17 13:11:59;;;;;;;24.60;15.47;;;8.10;99.90;;;;;;5065078;28;20482;-82
2022/01/17 13:14:26;;;;;;;23.47;14.90;;;8.10;99.90;;;;;;5069181;28;20457;-82
2022/01/17 13:16:53;;;;;;;24.27;14.70;;;8.10;99.90;;;;;;5075641;28;20480;-81
2022/01/17 13:19:22;;;;;;;21.20;13.93;;;8.10;99.90;;;;;;5077631;28;20453;-82
2022/01/17 13:21:50;;;;;;;27.60;16.33;;;8.10;99.90;;;;;;5069752;28;20444;-81
2022/01/17 13:27:12;;;;;;;22.60;15.70;;;8.10;99.90;;;;;;5067210;28;20462;-82